sensor_id;sensor_type;location;lat;lon;timestamp;P1;durP1;ratioP1;P2;durP2;ratioP2
12418;SDS011;6273;52.312;9.178;2022-07-25T00:00:40;5.87;;;5.47;;
12418;SDS011;6273;52.312;9.178;2022-07-25T00:03:05;7.07;;;6.40;;
12418;SDS011;6273;52.312;9.178;2022-07-25T00:05:31;6.00;;;5.50;;
12418;SDS011;6273;52.312;9.178;2022-07-25T00:07:56;5.50;;;5.10;;
12418;SDS011;6273;52.312;9.178;2022-07-25T00:10:22;5.63;;;5.07;;
12418;SDS011;6273;52.312;9.178;2022-07-25T00:12:48;7.50;;;6.63;;
12418;SDS011;6273;52.312;9.178;2022-07-25T00:15:14;9.33;;;5.40;;
12418;SDS011;6273;52.312;9.178;2022-07-25T00:17:40;5.23;;;4.80;;
12418;SDS011;6273;52.312;9.178;2022-07-25T00:20:06;5.43;;;4.93;;
12418;SDS011;6273;52.312;9.178;2022-07-25T00:22:32;6.00;;;5.20;;
12418;SDS011;6273;52.312;9.178;2022-07-25T00:24:58;6.27;;;5.87;;
12418;SDS011;6273;52.312;9.178;2022-07-25T00:27:23;6.00;;;5.40;;
12418;SDS011;6273;52.312;9.178;2022-07-25T00:29:49;6.00;;;5.50;;
12418;SDS011;6273;52.312;9.178;2022-07-25T00:32:15;5.20;;;4.80;;
12418;SDS011;6273;52.312;9.178;2022-07-25T00:34:40;5.67;;;5.17;;
12418;SDS011;6273;52.312;9.178;2022-07-25T00:37:06;6.03;;;4.47;;
12418;SDS011;6273;52.312;9.178;2022-07-25T00:39:32;7.03;;;5.57;;
12418;SDS011;6273;52.312;9.178;2022-07-25T00:41:57;5.70;;;5.20;;
12418;SDS011;6273;52.312;9.178;2022-07-25T00:44:27;4.73;;;4.43;;
12418;SDS011;6273;52.312;9.178;2022-07-25T00:46:54;4.80;;;4.50;;
12418;SDS011;6273;52.312;9.178;2022-07-25T00:49:20;5.70;;;5.20;;
12418;SDS011;6273;52.312;9.178;2022-07-25T00:51:46;5.73;;;4.47;;
12418;SDS011;6273;52.312;9.178;2022-07-25T00:54:13;6.43;;;4.80;;
12418;SDS011;6273;52.312;9.178;2022-07-25T00:56:39;5.17;;;4.77;;
12418;SDS011;6273;52.312;9.178;2022-07-25T00:59:05;5.20;;;4.80;;
12418;SDS011;6273;52.312;9.178;2022-07-25T01:01:31;5.30;;;4.80;;
12418;SDS011;6273;52.312;9.178;2022-07-25T01:03:57;4.97;;;4.67;;
12418;SDS011;6273;52.312;9.178;2022-07-25T01:06:23;7.57;;;4.53;;
12418;SDS011;6273;52.312;9.178;2022-07-25T01:08:49;4.47;;;4.17;;
12418;SDS011;6273;52.312;9.178;2022-07-25T01:11:15;5.30;;;4.27;;
12418;SDS011;6273;52.312;9.178;2022-07-25T01:13:41;5.17;;;4.77;;
12418;SDS011;6273;52.312;9.178;2022-07-25T01:16:06;5.30;;;4.87;;
12418;SDS011;6273;52.312;9.178;2022-07-25T01:18:32;4.67;;;4.30;;
12418;SDS011;6273;52.312;9.178;2022-07-25T01:20:58;5.00;;;4.50;;
12418;SDS011;6273;52.312;9.178;2022-07-25T01:23:25;5.13;;;3.83;;
12418;SDS011;6273;52.312;9.178;2022-07-25T01:25:51;4.40;;;4.10;;
12418;SDS011;6273;52.312;9.178;2022-07-25T01:28:17;5.40;;;4.90;;
12418;SDS011;6273;52.312;9.178;2022-07-25T01:30:43;6.87;;;4.77;;
12418;SDS011;6273;52.312;9.178;2022-07-25T01:33:09;5.80;;;5.20;;
12418;SDS011;6273;52.312;9.178;2022-07-25T01:35:38;5.43;;;4.73;;
12418;SDS011;6273;52.312;9.178;2022-07-25T01:38:04;7.23;;;5.00;;
12418;SDS011;6273;52.312;9.178;2022-07-25T01:40:29;3.80;;;3.60;;
12418;SDS011;6273;52.312;9.178;2022-07-25T01:42:55;4.53;;;4.33;;
12418;SDS011;6273;52.312;9.178;2022-07-25T01:45:20;5.10;;;4.63;;
12418;SDS011;6273;52.312;9.178;2022-07-25T01:47:46;5.57;;;5.10;;
12418;SDS011;6273;52.312;9.178;2022-07-25T01:50:12;5.13;;;4.73;;
12418;SDS011;6273;52.312;9.178;2022-07-25T01:52:37;4.60;;;4.30;;
12418;SDS011;6273;52.312;9.178;2022-07-25T01:55:04;5.60;;;4.47;;
12418;SDS011;6273;52.312;9.178;2022-07-25T01:57:29;4.57;;;4.17;;
12418;SDS011;6273;52.312;9.178;2022-07-25T01:59:55;4.40;;;4.00;;
12418;SDS011;6273;52.312;9.178;2022-07-25T02:02:21;7.77;;;4.30;;
12418;SDS011;6273;52.312;9.178;2022-07-25T02:04:46;4.50;;;4.10;;
12418;SDS011;6273;52.312;9.178;2022-07-25T02:07:12;6.87;;;5.20;;
12418;SDS011;6273;52.312;9.178;2022-07-25T02:09:38;5.23;;;4.93;;
12418;SDS011;6273;52.312;9.178;2022-07-25T02:12:04;4.33;;;3.93;;
12418;SDS011;6273;52.312;9.178;2022-07-25T02:14:31;4.50;;;4.20;;
12418;SDS011;6273;52.312;9.178;2022-07-25T02:16:57;5.83;;;5.30;;
12418;SDS011;6273;52.312;9.178;2022-07-25T02:19:23;5.00;;;4.60;;
12418;SDS011;6273;52.312;9.178;2022-07-25T02:21:48;5.40;;;4.13;;
12418;SDS011;6273;52.312;9.178;2022-07-25T02:24:14;4.90;;;3.80;;
12418;SDS011;6273;52.312;9.178;2022-07-25T02:26:39;5.17;;;4.70;;
12418;SDS011;6273;52.312;9.178;2022-07-25T02:29:05;4.63;;;4.20;;
12418;SDS011;6273;52.312;9.178;2022-07-25T02:31:31;5.97;;;5.50;;
12418;SDS011;6273;52.312;9.178;2022-07-25T02:33:56;4.20;;;3.97;;
12418;SDS011;6273;52.312;9.178;2022-07-25T02:36:22;5.00;;;4.60;;
12418;SDS011;6273;52.312;9.178;2022-07-25T02:38:47;5.33;;;5.03;;
12418;SDS011;6273;52.312;9.178;2022-07-25T02:41:13;5.20;;;4.60;;
12418;SDS011;6273;52.312;9.178;2022-07-25T02:43:39;4.37;;;4.07;;
12418;SDS011;6273;52.312;9.178;2022-07-25T02:46:04;4.70;;;4.40;;
12418;SDS011;6273;52.312;9.178;2022-07-25T02:48:30;5.20;;;4.80;;
12418;SDS011;6273;52.312;9.178;2022-07-25T02:50:55;4.50;;;4.10;;
12418;SDS011;6273;52.312;9.178;2022-07-25T02:53:21;5.00;;;4.70;;
12418;SDS011;6273;52.312;9.178;2022-07-25T02:55:47;6.53;;;4.53;;
12418;SDS011;6273;52.312;9.178;2022-07-25T02:58:12;5.00;;;4.67;;
12418;SDS011;6273;52.312;9.178;2022-07-25T03:00:38;4.57;;;4.20;;
12418;SDS011;6273;52.312;9.178;2022-07-25T03:03:04;5.93;;;4.57;;
12418;SDS011;6273;52.312;9.178;2022-07-25T03:05:30;7.87;;;4.73;;
12418;SDS011;6273;52.312;9.178;2022-07-25T03:07:56;6.90;;;4.70;;
12418;SDS011;6273;52.312;9.178;2022-07-25T03:10:21;4.13;;;3.83;;
12418;SDS011;6273;52.312;9.178;2022-07-25T03:12:47;8.63;;;4.83;;
12418;SDS011;6273;52.312;9.178;2022-07-25T03:15:12;5.63;;;4.70;;
12418;SDS011;6273;52.312;9.178;2022-07-25T03:17:38;5.13;;;4.50;;
12418;SDS011;6273;52.312;9.178;2022-07-25T03:20:05;5.37;;;4.97;;
12418;SDS011;6273;52.312;9.178;2022-07-25T03:22:31;4.90;;;4.60;;
12418;SDS011;6273;52.312;9.178;2022-07-25T03:24:57;5.40;;;5.00;;
12418;SDS011;6273;52.312;9.178;2022-07-25T03:27:22;4.93;;;4.53;;
12418;SDS011;6273;52.312;9.178;2022-07-25T03:29:48;5.20;;;4.80;;
12418;SDS011;6273;52.312;9.178;2022-07-25T03:32:14;6.80;;;5.90;;
12418;SDS011;6273;52.312;9.178;2022-07-25T03:34:40;5.60;;;5.10;;
12418;SDS011;6273;52.312;9.178;2022-07-25T03:37:05;4.50;;;4.20;;
12418;SDS011;6273;52.312;9.178;2022-07-25T03:39:31;4.77;;;4.43;;
12418;SDS011;6273;52.312;9.178;2022-07-25T03:41:57;5.20;;;4.80;;
12418;SDS011;6273;52.312;9.178;2022-07-25T03:44:23;8.40;;;5.27;;
12418;SDS011;6273;52.312;9.178;2022-07-25T03:46:50;5.23;;;4.83;;
12418;SDS011;6273;52.312;9.178;2022-07-25T03:49:16;9.83;;;4.47;;
12418;SDS011;6273;52.312;9.178;2022-07-25T03:51:42;6.47;;;5.40;;
12418;SDS011;6273;52.312;9.178;2022-07-25T03:54:07;5.00;;;4.67;;
12418;SDS011;6273;52.312;9.178;2022-07-25T03:56:41;4.60;;;4.27;;
12418;SDS011;6273;52.312;9.178;2022-07-25T03:59:08;5.70;;;5.10;;
12418;SDS011;6273;52.312;9.178;2022-07-25T04:01:35;7.30;;;4.70;;
12418;SDS011;6273;52.312;9.178;2022-07-25T04:04:01;4.77;;;4.27;;
12418;SDS011;6273;52.312;9.178;2022-07-25T04:06:27;4.60;;;4.17;;
12418;SDS011;6273;52.312;9.178;2022-07-25T04:08:53;6.13;;;4.70;;
12418;SDS011;6273;52.312;9.178;2022-07-25T04:11:20;5.50;;;4.93;;
12418;SDS011;6273;52.312;9.178;2022-07-25T04:13:46;5.57;;;5.07;;
12418;SDS011;6273;52.312;9.178;2022-07-25T04:16:12;4.80;;;4.20;;
12418;SDS011;6273;52.312;9.178;2022-07-25T04:18:38;4.17;;;3.87;;
12418;SDS011;6273;52.312;9.178;2022-07-25T04:21:04;6.53;;;4.97;;
12418;SDS011;6273;52.312;9.178;2022-07-25T04:23:30;5.53;;;5.03;;
12418;SDS011;6273;52.312;9.178;2022-07-25T04:25:56;5.63;;;4.97;;
12418;SDS011;6273;52.312;9.178;2022-07-25T04:28:22;8.30;;;5.60;;
12418;SDS011;6273;52.312;9.178;2022-07-25T04:30:48;4.40;;;4.10;;
12418;SDS011;6273;52.312;9.178;2022-07-25T04:33:14;5.93;;;4.73;;
12418;SDS011;6273;52.312;9.178;2022-07-25T04:35:40;5.40;;;4.90;;
12418;SDS011;6273;52.312;9.178;2022-07-25T04:38:06;5.00;;;4.50;;
12418;SDS011;6273;52.312;9.178;2022-07-25T04:40:31;4.70;;;4.40;;
12418;SDS011;6273;52.312;9.178;2022-07-25T04:42:57;5.43;;;5.03;;
12418;SDS011;6273;52.312;9.178;2022-07-25T04:45:23;4.93;;;4.33;;
12418;SDS011;6273;52.312;9.178;2022-07-25T04:47:48;5.60;;;5.20;;
12418;SDS011;6273;52.312;9.178;2022-07-25T04:50:14;10.13;;;4.90;;
12418;SDS011;6273;52.312;9.178;2022-07-25T04:52:40;8.53;;;4.93;;
12418;SDS011;6273;52.312;9.178;2022-07-25T04:55:06;6.03;;;5.53;;
12418;SDS011;6273;52.312;9.178;2022-07-25T04:57:32;6.13;;;4.90;;
12418;SDS011;6273;52.312;9.178;2022-07-25T04:59:58;5.70;;;5.20;;
12418;SDS011;6273;52.312;9.178;2022-07-25T05:02:24;5.40;;;5.10;;
12418;SDS011;6273;52.312;9.178;2022-07-25T05:04:50;5.67;;;5.17;;
12418;SDS011;6273;52.312;9.178;2022-07-25T05:07:16;4.90;;;4.60;;
12418;SDS011;6273;52.312;9.178;2022-07-25T05:09:41;5.87;;;5.23;;
12418;SDS011;6273;52.312;9.178;2022-07-25T05:12:07;6.43;;;4.90;;
12418;SDS011;6273;52.312;9.178;2022-07-25T05:14:33;5.30;;;4.90;;
12418;SDS011;6273;52.312;9.178;2022-07-25T05:16:59;5.73;;;5.33;;
12418;SDS011;6273;52.312;9.178;2022-07-25T05:19:25;5.20;;;4.80;;
12418;SDS011;6273;52.312;9.178;2022-07-25T05:21:51;5.60;;;5.20;;
12418;SDS011;6273;52.312;9.178;2022-07-25T05:24:16;10.37;;;5.30;;
12418;SDS011;6273;52.312;9.178;2022-07-25T05:26:42;5.40;;;4.97;;
12418;SDS011;6273;52.312;9.178;2022-07-25T06:53:16;6.30;;;5.30;;
12418;SDS011;6273;52.312;9.178;2022-07-25T06:55:42;9.60;;;5.23;;
12418;SDS011;6273;52.312;9.178;2022-07-25T06:58:08;5.63;;;5.17;;
12418;SDS011;6273;52.312;9.178;2022-07-25T07:00:33;5.87;;;5.30;;
12418;SDS011;6273;52.312;9.178;2022-07-25T07:03:00;6.13;;;5.60;;
12418;SDS011;6273;52.312;9.178;2022-07-25T07:05:28;6.60;;;5.80;;
12418;SDS011;6273;52.312;9.178;2022-07-25T07:07:55;6.43;;;5.00;;
12418;SDS011;6273;52.312;9.178;2022-07-25T07:23:53;6.73;;;5.30;;
12418;SDS011;6273;52.312;9.178;2022-07-25T07:27:04;5.50;;;5.00;;
12418;SDS011;6273;52.312;9.178;2022-07-25T07:34:28;6.40;;;5.90;;
12418;SDS011;6273;52.312;9.178;2022-07-25T07:36:35;6.73;;;6.23;;
12418;SDS011;6273;52.312;9.178;2022-07-25T07:44:26;6.30;;;5.67;;
12418;SDS011;6273;52.312;9.178;2022-07-25T07:46:52;6.17;;;5.53;;
12418;SDS011;6273;52.312;9.178;2022-07-25T08:03:06;6.10;;;5.37;;
12418;SDS011;6273;52.312;9.178;2022-07-25T08:05:39;6.00;;;5.50;;
12418;SDS011;6273;52.312;9.178;2022-07-25T08:08:07;8.20;;;5.60;;
12418;SDS011;6273;52.312;9.178;2022-07-25T08:10:36;6.07;;;5.57;;
12418;SDS011;6273;52.312;9.178;2022-07-25T08:13:18;5.90;;;5.50;;
12418;SDS011;6273;52.312;9.178;2022-07-25T08:15:49;6.87;;;6.37;;
12418;SDS011;6273;52.312;9.178;2022-07-25T08:20:52;6.17;;;5.83;;
12418;SDS011;6273;52.312;9.178;2022-07-25T09:14:05;8.50;;;5.80;;
12418;SDS011;6273;52.312;9.178;2022-07-25T10:49:34;11.00;;;6.30;;
12418;SDS011;6273;52.312;9.178;2022-07-25T10:59:24;46.00;;;10.70;;
12418;SDS011;6273;52.312;9.178;2022-07-25T11:02:09;11.50;;;5.63;;
12418;SDS011;6273;52.312;9.178;2022-07-25T11:04:42;5.90;;;5.40;;
12418;SDS011;6273;52.312;9.178;2022-07-25T11:07:09;6.80;;;6.17;;
12418;SDS011;6273;52.312;9.178;2022-07-25T11:13:13;9.93;;;6.37;;
12418;SDS011;6273;52.312;9.178;2022-07-25T11:16:26;7.30;;;6.63;;
12418;SDS011;6273;52.312;9.178;2022-07-25T11:18:52;7.10;;;6.40;;
12418;SDS011;6273;52.312;9.178;2022-07-25T11:21:20;8.03;;;6.43;;
12418;SDS011;6273;52.312;9.178;2022-07-25T11:23:49;6.97;;;6.40;;
12418;SDS011;6273;52.312;9.178;2022-07-25T11:26:16;6.43;;;5.70;;
12418;SDS011;6273;52.312;9.178;2022-07-25T11:28:43;26.07;;;8.00;;
12418;SDS011;6273;52.312;9.178;2022-07-25T11:31:10;21.87;;;8.80;;
12418;SDS011;6273;52.312;9.178;2022-07-25T11:33:38;7.70;;;7.00;;
12418;SDS011;6273;52.312;9.178;2022-07-25T11:36:05;10.43;;;6.03;;
12418;SDS011;6273;52.312;9.178;2022-07-25T11:38:32;7.60;;;5.97;;
12418;SDS011;6273;52.312;9.178;2022-07-25T11:40:59;7.27;;;6.57;;
12418;SDS011;6273;52.312;9.178;2022-07-25T11:43:24;19.17;;;8.00;;
12418;SDS011;6273;52.312;9.178;2022-07-25T11:46:05;10.10;;;6.80;;
12418;SDS011;6273;52.312;9.178;2022-07-25T11:48:38;12.17;;;7.00;;
12418;SDS011;6273;52.312;9.178;2022-07-25T11:51:11;62.73;;;11.07;;
12418;SDS011;6273;52.312;9.178;2022-07-25T11:53:44;8.10;;;5.97;;
12418;SDS011;6273;52.312;9.178;2022-07-25T11:56:15;6.93;;;6.33;;
12418;SDS011;6273;52.312;9.178;2022-07-25T11:58:44;45.93;;;8.73;;
12418;SDS011;6273;52.312;9.178;2022-07-25T12:01:21;15.10;;;7.50;;
12418;SDS011;6273;52.312;9.178;2022-07-25T12:03:48;28.40;;;9.33;;
12418;SDS011;6273;52.312;9.178;2022-07-25T12:06:14;20.67;;;7.47;;
12418;SDS011;6273;52.312;9.178;2022-07-25T12:08:40;26.60;;;10.43;;
12418;SDS011;6273;52.312;9.178;2022-07-25T12:11:19;47.47;;;10.50;;
12418;SDS011;6273;52.312;9.178;2022-07-25T12:13:46;9.73;;;6.93;;
12418;SDS011;6273;52.312;9.178;2022-07-25T12:16:13;35.20;;;10.40;;
12418;SDS011;6273;52.312;9.178;2022-07-25T12:18:40;31.80;;;8.67;;
12418;SDS011;6273;52.312;9.178;2022-07-25T12:21:06;27.93;;;9.40;;
12418;SDS011;6273;52.312;9.178;2022-07-25T12:23:31;7.53;;;6.57;;
12418;SDS011;6273;52.312;9.178;2022-07-25T12:25:58;6.93;;;6.30;;
12418;SDS011;6273;52.312;9.178;2022-07-25T12:28:23;11.87;;;7.40;;
12418;SDS011;6273;52.312;9.178;2022-07-25T12:30:49;8.30;;;6.70;;
12418;SDS011;6273;52.312;9.178;2022-07-25T12:33:15;9.57;;;6.73;;
12418;SDS011;6273;52.312;9.178;2022-07-25T12:35:41;8.73;;;6.80;;
12418;SDS011;6273;52.312;9.178;2022-07-25T12:38:08;7.17;;;6.47;;
12418;SDS011;6273;52.312;9.178;2022-07-25T12:40:35;10.27;;;6.43;;
12418;SDS011;6273;52.312;9.178;2022-07-25T12:43:00;8.53;;;7.37;;
12418;SDS011;6273;52.312;9.178;2022-07-25T12:45:27;7.13;;;6.50;;
12418;SDS011;6273;52.312;9.178;2022-07-25T12:47:53;5.83;;;5.40;;
12418;SDS011;6273;52.312;9.178;2022-07-25T12:50:19;6.43;;;5.93;;
12418;SDS011;6273;52.312;9.178;2022-07-25T12:52:45;5.83;;;5.43;;
12418;SDS011;6273;52.312;9.178;2022-07-25T12:55:13;7.50;;;6.73;;
12418;SDS011;6273;52.312;9.178;2022-07-25T12:57:40;10.23;;;6.60;;
12418;SDS011;6273;52.312;9.178;2022-07-25T13:00:07;6.13;;;5.73;;
12418;SDS011;6273;52.312;9.178;2022-07-25T13:02:36;8.77;;;5.87;;
12418;SDS011;6273;52.312;9.178;2022-07-25T13:05:02;7.00;;;6.30;;
12418;SDS011;6273;52.312;9.178;2022-07-25T13:07:28;9.87;;;6.00;;
12418;SDS011;6273;52.312;9.178;2022-07-25T13:09:54;6.03;;;5.43;;
12418;SDS011;6273;52.312;9.178;2022-07-25T13:12:19;9.23;;;6.40;;
12418;SDS011;6273;52.312;9.178;2022-07-25T13:14:46;6.60;;;6.10;;
12418;SDS011;6273;52.312;9.178;2022-07-25T13:17:12;11.50;;;7.40;;
12418;SDS011;6273;52.312;9.178;2022-07-25T13:19:38;6.33;;;5.83;;
12418;SDS011;6273;52.312;9.178;2022-07-25T13:22:03;9.30;;;6.53;;
12418;SDS011;6273;52.312;9.178;2022-07-25T13:24:29;11.80;;;6.13;;
12418;SDS011;6273;52.312;9.178;2022-07-25T13:26:55;7.90;;;7.03;;
12418;SDS011;6273;52.312;9.178;2022-07-25T13:29:21;6.40;;;5.90;;
12418;SDS011;6273;52.312;9.178;2022-07-25T13:31:47;6.40;;;5.90;;
12418;SDS011;6273;52.312;9.178;2022-07-25T13:34:12;9.57;;;6.30;;
12418;SDS011;6273;52.312;9.178;2022-07-25T13:36:38;7.90;;;6.50;;
12418;SDS011;6273;52.312;9.178;2022-07-25T13:39:04;6.40;;;5.90;;
12418;SDS011;6273;52.312;9.178;2022-07-25T13:41:30;6.83;;;6.23;;
12418;SDS011;6273;52.312;9.178;2022-07-25T13:43:56;7.00;;;6.30;;
12418;SDS011;6273;52.312;9.178;2022-07-25T13:46:22;8.00;;;6.90;;
12418;SDS011;6273;52.312;9.178;2022-07-25T13:48:48;7.23;;;6.73;;
12418;SDS011;6273;52.312;9.178;2022-07-25T13:51:14;6.63;;;5.90;;
12418;SDS011;6273;52.312;9.178;2022-07-25T13:53:40;11.57;;;7.50;;
12418;SDS011;6273;52.312;9.178;2022-07-25T13:56:08;10.90;;;6.33;;
12418;SDS011;6273;52.312;9.178;2022-07-25T13:58:34;7.50;;;6.80;;
12418;SDS011;6273;52.312;9.178;2022-07-25T14:01:00;8.57;;;5.73;;
12418;SDS011;6273;52.312;9.178;2022-07-25T14:03:25;7.97;;;6.20;;
12418;SDS011;6273;52.312;9.178;2022-07-25T14:05:51;6.60;;;5.33;;
12418;SDS011;6273;52.312;9.178;2022-07-25T14:08:17;7.50;;;6.10;;
12418;SDS011;6273;52.312;9.178;2022-07-25T14:10:43;9.30;;;6.87;;
12418;SDS011;6273;52.312;9.178;2022-07-25T14:13:08;7.00;;;6.30;;
12418;SDS011;6273;52.312;9.178;2022-07-25T14:15:36;5.90;;;5.50;;
12418;SDS011;6273;52.312;9.178;2022-07-25T14:18:02;6.50;;;6.00;;
12418;SDS011;6273;52.312;9.178;2022-07-25T14:20:27;6.60;;;5.90;;
12418;SDS011;6273;52.312;9.178;2022-07-25T14:22:53;7.10;;;6.40;;
12418;SDS011;6273;52.312;9.178;2022-07-25T14:25:19;6.80;;;6.20;;
12418;SDS011;6273;52.312;9.178;2022-07-25T14:27:44;9.57;;;5.90;;
12418;SDS011;6273;52.312;9.178;2022-07-25T14:30:10;5.67;;;5.27;;
12418;SDS011;6273;52.312;9.178;2022-07-25T14:32:36;14.13;;;7.03;;
12418;SDS011;6273;52.312;9.178;2022-07-25T14:35:02;8.87;;;6.37;;
12418;SDS011;6273;52.312;9.178;2022-07-25T14:37:30;6.23;;;5.77;;
12418;SDS011;6273;52.312;9.178;2022-07-25T14:39:59;8.23;;;5.97;;
12418;SDS011;6273;52.312;9.178;2022-07-25T14:42:26;7.10;;;6.50;;
12418;SDS011;6273;52.312;9.178;2022-07-25T14:44:52;7.27;;;6.77;;
12418;SDS011;6273;52.312;9.178;2022-07-25T14:47:18;6.87;;;6.27;;
12418;SDS011;6273;52.312;9.178;2022-07-25T14:49:46;8.43;;;7.73;;
12418;SDS011;6273;52.312;9.178;2022-07-25T14:52:12;8.30;;;7.47;;
12418;SDS011;6273;52.312;9.178;2022-07-25T14:54:39;8.17;;;7.37;;
12418;SDS011;6273;52.312;9.178;2022-07-25T14:57:06;15.10;;;8.10;;
12418;SDS011;6273;52.312;9.178;2022-07-25T14:59:32;10.37;;;8.27;;
12418;SDS011;6273;52.312;9.178;2022-07-25T15:01:58;11.87;;;7.87;;
12418;SDS011;6273;52.312;9.178;2022-07-25T15:04:23;8.43;;;7.70;;
12418;SDS011;6273;52.312;9.178;2022-07-25T15:06:49;9.03;;;7.57;;
12418;SDS011;6273;52.312;9.178;2022-07-25T15:09:16;11.40;;;8.13;;
12418;SDS011;6273;52.312;9.178;2022-07-25T15:11:42;13.73;;;7.90;;
12418;SDS011;6273;52.312;9.178;2022-07-25T15:14:08;8.50;;;7.70;;
12418;SDS011;6273;52.312;9.178;2022-07-25T15:16:33;9.60;;;8.60;;
12418;SDS011;6273;52.312;9.178;2022-07-25T15:18:59;7.73;;;6.93;;
12418;SDS011;6273;52.312;9.178;2022-07-25T15:21:25;11.53;;;8.63;;
12418;SDS011;6273;52.312;9.178;2022-07-25T15:23:51;9.00;;;8.10;;
12418;SDS011;6273;52.312;9.178;2022-07-25T15:26:18;9.33;;;7.70;;
12418;SDS011;6273;52.312;9.178;2022-07-25T15:28:44;9.97;;;9.07;;
12418;SDS011;6273;52.312;9.178;2022-07-25T15:31:10;9.40;;;8.23;;
12418;SDS011;6273;52.312;9.178;2022-07-25T15:33:35;8.67;;;7.97;;
12418;SDS011;6273;52.312;9.178;2022-07-25T15:36:01;9.40;;;7.10;;
12418;SDS011;6273;52.312;9.178;2022-07-25T15:38:27;7.67;;;6.27;;
12418;SDS011;6273;52.312;9.178;2022-07-25T15:40:53;8.70;;;6.77;;
12418;SDS011;6273;52.312;9.178;2022-07-25T15:43:19;7.33;;;6.60;;
12418;SDS011;6273;52.312;9.178;2022-07-25T15:45:45;10.57;;;5.90;;
12418;SDS011;6273;52.312;9.178;2022-07-25T15:48:11;7.50;;;5.50;;
12418;SDS011;6273;52.312;9.178;2022-07-25T15:50:39;7.23;;;6.50;;
12418;SDS011;6273;52.312;9.178;2022-07-25T15:53:07;7.30;;;5.90;;
12418;SDS011;6273;52.312;9.178;2022-07-25T15:55:35;7.30;;;5.00;;
12418;SDS011;6273;52.312;9.178;2022-07-25T15:58:01;5.80;;;4.87;;
12418;SDS011;6273;52.312;9.178;2022-07-25T16:00:27;8.30;;;5.50;;
12418;SDS011;6273;52.312;9.178;2022-07-25T16:02:53;5.47;;;4.93;;
12418;SDS011;6273;52.312;9.178;2022-07-25T16:05:19;9.70;;;5.20;;
12418;SDS011;6273;52.312;9.178;2022-07-25T16:07:45;8.53;;;4.23;;
12418;SDS011;6273;52.312;9.178;2022-07-25T16:10:11;6.20;;;5.33;;
12418;SDS011;6273;52.312;9.178;2022-07-25T16:12:37;4.93;;;4.53;;
12418;SDS011;6273;52.312;9.178;2022-07-25T16:15:03;4.30;;;3.90;;
12418;SDS011;6273;52.312;9.178;2022-07-25T16:17:30;4.17;;;3.83;;
12418;SDS011;6273;52.312;9.178;2022-07-25T16:19:59;8.33;;;4.70;;
12418;SDS011;6273;52.312;9.178;2022-07-25T16:22:24;5.80;;;5.27;;
12418;SDS011;6273;52.312;9.178;2022-07-25T16:24:50;4.87;;;4.47;;
12418;SDS011;6273;52.312;9.178;2022-07-25T16:27:16;6.50;;;4.30;;
12418;SDS011;6273;52.312;9.178;2022-07-25T16:29:42;10.23;;;4.87;;
12418;SDS011;6273;52.312;9.178;2022-07-25T16:32:08;5.13;;;3.90;;
12418;SDS011;6273;52.312;9.178;2022-07-25T16:34:34;3.93;;;3.63;;
12418;SDS011;6273;52.312;9.178;2022-07-25T16:37:00;10.27;;;3.90;;
12418;SDS011;6273;52.312;9.178;2022-07-25T16:39:27;3.40;;;3.10;;
12418;SDS011;6273;52.312;9.178;2022-07-25T16:41:53;5.53;;;3.10;;
12418;SDS011;6273;52.312;9.178;2022-07-25T16:44:19;4.20;;;2.60;;
12418;SDS011;6273;52.312;9.178;2022-07-25T16:46:47;6.83;;;3.03;;
12418;SDS011;6273;52.312;9.178;2022-07-25T16:49:13;7.77;;;3.10;;
12418;SDS011;6273;52.312;9.178;2022-07-25T16:51:40;3.03;;;2.73;;
12418;SDS011;6273;52.312;9.178;2022-07-25T16:54:06;3.63;;;2.80;;
12418;SDS011;6273;52.312;9.178;2022-07-25T16:56:32;4.70;;;2.50;;
12418;SDS011;6273;52.312;9.178;2022-07-25T16:58:58;2.03;;;1.93;;
12418;SDS011;6273;52.312;9.178;2022-07-25T17:01:25;5.43;;;2.90;;
12418;SDS011;6273;52.312;9.178;2022-07-25T17:03:51;5.40;;;3.90;;
12418;SDS011;6273;52.312;9.178;2022-07-25T17:06:16;4.00;;;3.03;;
12418;SDS011;6273;52.312;9.178;2022-07-25T17:08:42;5.97;;;2.43;;
12418;SDS011;6273;52.312;9.178;2022-07-25T17:11:08;5.77;;;2.20;;
12418;SDS011;6273;52.312;9.178;2022-07-25T17:13:34;9.83;;;2.60;;
12418;SDS011;6273;52.312;9.178;2022-07-25T17:16:00;4.20;;;2.10;;
12418;SDS011;6273;52.312;9.178;2022-07-25T17:18:26;5.60;;;2.30;;
12418;SDS011;6273;52.312;9.178;2022-07-25T17:20:51;3.73;;;2.67;;
12418;SDS011;6273;52.312;9.178;2022-07-25T17:23:18;4.43;;;2.83;;
12418;SDS011;6273;52.312;9.178;2022-07-25T17:25:44;12.07;;;4.00;;
12418;SDS011;6273;52.312;9.178;2022-07-25T17:28:11;3.37;;;2.50;;
12418;SDS011;6273;52.312;9.178;2022-07-25T17:30:36;6.97;;;3.10;;
12418;SDS011;6273;52.312;9.178;2022-07-25T17:33:02;6.13;;;2.70;;
12418;SDS011;6273;52.312;9.178;2022-07-25T17:35:28;4.80;;;2.87;;
12418;SDS011;6273;52.312;9.178;2022-07-25T17:37:54;5.70;;;3.00;;
12418;SDS011;6273;52.312;9.178;2022-07-25T17:40:19;8.90;;;2.93;;
12418;SDS011;6273;52.312;9.178;2022-07-25T17:42:45;6.83;;;5.10;;
12418;SDS011;6273;52.312;9.178;2022-07-25T17:45:12;6.03;;;3.13;;
12418;SDS011;6273;52.312;9.178;2022-07-25T17:47:39;4.07;;;2.77;;
12418;SDS011;6273;52.312;9.178;2022-07-25T17:50:05;3.77;;;2.67;;
12418;SDS011;6273;52.312;9.178;2022-07-25T17:52:31;4.33;;;2.70;;
12418;SDS011;6273;52.312;9.178;2022-07-25T17:54:57;5.73;;;3.50;;
12418;SDS011;6273;52.312;9.178;2022-07-25T17:57:23;6.63;;;5.30;;
12418;SDS011;6273;52.312;9.178;2022-07-25T17:59:49;5.73;;;3.80;;
12418;SDS011;6273;52.312;9.178;2022-07-25T18:02:15;5.30;;;4.10;;
12418;SDS011;6273;52.312;9.178;2022-07-25T18:04:41;7.90;;;2.90;;
12418;SDS011;6273;52.312;9.178;2022-07-25T18:07:07;7.30;;;3.40;;
12418;SDS011;6273;52.312;9.178;2022-07-25T18:09:33;8.43;;;5.97;;
12418;SDS011;6273;52.312;9.178;2022-07-25T18:11:59;8.33;;;3.30;;
12418;SDS011;6273;52.312;9.178;2022-07-25T18:14:25;5.00;;;3.43;;
12418;SDS011;6273;52.312;9.178;2022-07-25T18:16:52;4.63;;;2.57;;
12418;SDS011;6273;52.312;9.178;2022-07-25T18:19:18;2.77;;;2.40;;
12418;SDS011;6273;52.312;9.178;2022-07-25T18:21:44;4.63;;;3.60;;
12418;SDS011;6273;52.312;9.178;2022-07-25T18:24:11;4.90;;;3.03;;
12418;SDS011;6273;52.312;9.178;2022-07-25T18:26:38;3.37;;;3.07;;
12418;SDS011;6273;52.312;9.178;2022-07-25T18:29:04;11.57;;;3.77;;
12418;SDS011;6273;52.312;9.178;2022-07-25T18:31:31;5.63;;;3.20;;
12418;SDS011;6273;52.312;9.178;2022-07-25T18:33:57;6.10;;;3.33;;
12418;SDS011;6273;52.312;9.178;2022-07-25T18:36:22;5.47;;;3.87;;
12418;SDS011;6273;52.312;9.178;2022-07-25T18:38:49;4.07;;;2.87;;
12418;SDS011;6273;52.312;9.178;2022-07-25T18:41:18;4.97;;;2.93;;
12418;SDS011;6273;52.312;9.178;2022-07-25T18:43:44;8.57;;;4.40;;
12418;SDS011;6273;52.312;9.178;2022-07-25T18:46:10;6.07;;;3.90;;
12418;SDS011;6273;52.312;9.178;2022-07-25T18:48:36;8.20;;;3.20;;
12418;SDS011;6273;52.312;9.178;2022-07-25T18:51:02;11.70;;;6.67;;
12418;SDS011;6273;52.312;9.178;2022-07-25T18:53:28;9.10;;;5.07;;
12418;SDS011;6273;52.312;9.178;2022-07-25T18:55:53;11.10;;;7.43;;
12418;SDS011;6273;52.312;9.178;2022-07-25T18:58:19;11.40;;;4.93;;
12418;SDS011;6273;52.312;9.178;2022-07-25T19:00:45;10.13;;;3.57;;
12418;SDS011;6273;52.312;9.178;2022-07-25T19:03:10;9.87;;;5.80;;
12418;SDS011;6273;52.312;9.178;2022-07-25T19:05:36;5.40;;;3.50;;
12418;SDS011;6273;52.312;9.178;2022-07-25T19:08:03;4.03;;;3.27;;
12418;SDS011;6273;52.312;9.178;2022-07-25T19:10:29;4.63;;;3.83;;
12418;SDS011;6273;52.312;9.178;2022-07-25T19:12:55;4.27;;;3.90;;
12418;SDS011;6273;52.312;9.178;2022-07-25T19:15:20;6.03;;;4.63;;
12418;SDS011;6273;52.312;9.178;2022-07-25T19:17:46;5.20;;;3.80;;
12418;SDS011;6273;52.312;9.178;2022-07-25T19:20:12;7.10;;;3.47;;
12418;SDS011;6273;52.312;9.178;2022-07-25T19:22:38;7.47;;;3.73;;
12418;SDS011;6273;52.312;9.178;2022-07-25T19:25:04;4.97;;;4.17;;
12418;SDS011;6273;52.312;9.178;2022-07-25T19:27:32;7.50;;;3.80;;
12418;SDS011;6273;52.312;9.178;2022-07-25T19:30:02;5.43;;;3.93;;
12418;SDS011;6273;52.312;9.178;2022-07-25T19:32:30;5.37;;;4.20;;
12418;SDS011;6273;52.312;9.178;2022-07-25T19:34:57;10.00;;;4.13;;